createdAt,value
2023-02-14T00:01:48.423Z,22.25
2023-02-14T00:04:15.934Z,23.02
2023-02-14T00:06:45.310Z,22.70
2023-02-14T00:09:13.221Z,23.48
2023-02-14T00:11:39.747Z,22.88
2023-02-14T00:14:24.936Z,22.35
2023-02-14T00:16:54.350Z,21.92
2023-02-14T00:19:21.307Z,22.10
2023-02-14T00:21:48.079Z,22.63
2023-02-14T00:24:18.903Z,23.70
2023-02-14T00:26:45.340Z,23.00
2023-02-14T00:29:13.242Z,23.58
2023-02-14T00:31:40.162Z,23.17
2023-02-14T00:34:06.865Z,23.33
2023-02-14T00:36:33.577Z,23.45
2023-02-14T00:39:01.699Z,22.27
2023-02-14T00:41:28.065Z,23.65
2023-02-14T00:43:54.463Z,23.95
2023-02-14T00:46:22.072Z,23.27
2023-02-14T00:48:48.383Z,23.65
2023-02-14T00:51:14.779Z,23.25
2023-02-14T00:53:41.448Z,23.08
2023-02-14T00:56:07.950Z,22.50
2023-02-14T00:58:34.403Z,23.38
2023-02-14T01:01:01.284Z,22.63
2023-02-14T01:03:27.968Z,22.67
2023-02-14T01:05:54.321Z,23.65
2023-02-14T01:08:20.887Z,23.25
2023-02-14T01:10:47.588Z,23.95
2023-02-14T01:13:14.124Z,24.08
2023-02-14T01:15:41.892Z,23.13
2023-02-14T01:18:08.718Z,23.83
2023-02-14T01:20:35.590Z,22.10
2023-02-14T01:23:02.323Z,21.27
2023-02-14T01:25:28.806Z,21.25
2023-02-14T01:27:55.285Z,21.55
2023-02-14T01:30:21.789Z,20.23
2023-02-14T01:32:48.377Z,20.23
2023-02-14T01:35:14.796Z,20.55
2023-02-14T01:37:41.326Z,20.23
2023-02-14T01:40:08.398Z,18.95
2023-02-14T01:42:35.377Z,18.38
2023-02-14T01:45:03.629Z,19.80
2023-02-14T01:47:32.483Z,18.90
2023-02-14T01:50:04.830Z,18.77
2023-02-14T01:52:37.455Z,18.80
2023-02-14T01:55:09.712Z,18.08
2023-02-14T01:57:38.707Z,17.50
2023-02-14T02:00:24.769Z,17.55
2023-02-14T02:02:51.144Z,17.48
2023-02-14T02:05:23.581Z,18.13
2023-02-14T02:07:54.649Z,17.95
2023-02-14T02:10:21.050Z,18.25
2023-02-14T02:12:48.666Z,17.67
2023-02-14T02:15:15.138Z,19.00
2023-02-14T02:17:49.018Z,18.58
2023-02-14T02:20:15.384Z,19.45
2023-02-14T02:22:44.833Z,18.80
2023-02-14T02:25:37.604Z,18.65
2023-02-14T02:28:03.933Z,17.35
2023-02-14T02:30:51.392Z,17.42
2023-02-14T02:33:39.106Z,16.88
2023-02-14T02:36:24.392Z,15.80
2023-02-14T02:38:53.863Z,15.48
2023-02-14T02:41:47.365Z,14.63
2023-02-14T02:44:29.449Z,14.57
2023-02-14T02:47:02.646Z,14.32
2023-02-14T02:50:04.172Z,13.77
2023-02-14T02:53:01.356Z,13.80
2023-02-14T02:56:09.607Z,14.82
2023-02-14T02:58:45.200Z,14.25
2023-02-14T03:01:13.999Z,14.13
2023-02-14T03:04:00.982Z,15.27
2023-02-14T03:06:27.298Z,14.40
2023-02-14T03:08:53.685Z,14.13
2023-02-14T03:11:20.262Z,15.00
2023-02-14T03:13:55.018Z,13.93
2023-02-14T03:16:44.129Z,14.70
2023-02-14T03:19:21.626Z,14.80
2023-02-14T03:21:51.109Z,14.43
2023-02-14T03:24:26.599Z,14.40
2023-02-14T03:29:31.646Z,13.43
2023-02-14T03:32:01.984Z,13.98
2023-02-14T03:34:35.209Z,14.20
2023-02-14T03:37:05.877Z,13.50
2023-02-14T03:39:44.593Z,14.18
2023-02-14T03:42:22.548Z,15.13
2023-02-14T03:44:50.742Z,13.48
2023-02-14T03:47:18.908Z,13.38
2023-02-14T03:49:47.934Z,14.57
2023-02-14T03:52:14.929Z,14.35
2023-02-14T03:54:41.906Z,14.65
2023-02-14T03:57:13.940Z,14.05
2023-02-14T03:59:41.199Z,14.15
2023-02-14T04:02:11.097Z,14.10
2023-02-14T04:04:40.135Z,14.32
2023-02-14T04:07:14.308Z,14.00
2023-02-14T04:09:43.533Z,15.13
2023-02-14T04:12:10.480Z,14.43
2023-02-14T04:14:37.098Z,13.73
2023-02-14T04:17:22.569Z,13.70
2023-02-14T04:19:48.928Z,14.23
2023-02-14T04:22:15.296Z,13.77
2023-02-14T04:24:42.002Z,14.45
2023-02-14T04:27:11.446Z,14.32
2023-02-14T04:29:42.270Z,14.27
2023-02-14T04:32:10.323Z,15.57
2023-02-14T04:34:36.875Z,14.75
2023-02-14T04:37:04.779Z,15.60
2023-02-14T04:39:31.459Z,14.88
2023-02-14T04:42:00.695Z,15.23
2023-02-14T04:44:27.189Z,14.15
2023-02-14T04:46:53.695Z,13.52
2023-02-14T04:49:20.108Z,14.68
2023-02-14T04:51:46.557Z,14.15
2023-02-14T04:54:13.045Z,13.93
2023-02-14T04:56:39.581Z,13.88
2023-02-14T04:59:05.993Z,14.10
2023-02-14T05:01:32.411Z,12.68
2023-02-14T05:03:58.794Z,13.23
2023-02-14T05:06:25.209Z,14.77
2023-02-14T05:08:58.151Z,13.82
2023-02-14T05:11:24.693Z,14.13
2023-02-14T05:13:51.121Z,14.07
2023-02-14T05:16:17.478Z,14.18
2023-02-14T05:18:47.012Z,13.90
2023-02-14T05:21:13.387Z,14.88
2023-02-14T05:23:40.058Z,14.93
2023-02-14T05:26:06.876Z,14.40
2023-02-14T05:28:33.883Z,14.82
2023-02-14T05:31:00.716Z,13.98
2023-02-14T05:33:27.462Z,14.10
2023-02-14T05:35:53.912Z,13.38
2023-02-14T05:38:20.301Z,13.75
2023-02-14T05:40:46.824Z,12.68
2023-02-14T05:43:13.381Z,13.30
2023-02-14T05:45:39.847Z,12.52
2023-02-14T05:48:06.237Z,13.57
2023-02-14T05:50:32.765Z,12.25
2023-02-14T05:52:59.467Z,12.07
2023-02-14T05:55:26.277Z,12.60
2023-02-14T05:57:52.716Z,12.70
2023-02-14T06:00:19.453Z,12.98
2023-02-14T06:02:45.835Z,12.05
2023-02-14T06:05:12.444Z,12.02
2023-02-14T06:07:38.828Z,12.68
2023-02-14T06:10:05.499Z,12.82
2023-02-14T06:12:31.875Z,11.75
2023-02-14T06:14:58.225Z,12.70
2023-02-14T06:17:24.583Z,12.18
2023-02-14T06:19:50.978Z,11.85
2023-02-14T06:22:17.979Z,12.35
2023-02-14T06:24:46.517Z,12.40
2023-02-14T06:27:12.939Z,12.13
2023-02-14T06:29:39.275Z,12.45
2023-02-14T06:32:06.972Z,12.38
2023-02-14T06:34:33.838Z,12.63
2023-02-14T06:37:00.633Z,13.40
2023-02-14T06:39:27.155Z,13.63
2023-02-14T06:41:53.576Z,12.55
2023-02-14T06:44:20.227Z,11.70
2023-02-14T06:46:46.677Z,12.27
2023-02-14T06:49:13.033Z,13.20
2023-02-14T06:51:39.559Z,12.55
2023-02-14T06:54:06.014Z,12.30
2023-02-14T06:56:32.558Z,13.10
2023-02-14T06:58:58.895Z,13.13
2023-02-14T07:01:25.292Z,13.68
2023-02-14T07:03:51.693Z,12.80
2023-02-14T07:06:18.033Z,13.38
2023-02-14T07:08:44.439Z,12.73
2023-02-14T07:11:10.947Z,13.82
2023-02-14T07:13:37.266Z,12.60
2023-02-14T07:16:03.869Z,14.00
2023-02-14T07:18:30.332Z,13.30
2023-02-14T07:20:56.844Z,14.18
2023-02-14T07:23:23.301Z,13.80
2023-02-14T07:25:49.717Z,14.65
2023-02-14T07:28:16.035Z,13.82
2023-02-14T07:30:42.583Z,14.63
2023-02-14T07:33:09.040Z,14.98
2023-02-14T07:35:35.639Z,13.85
2023-02-14T07:38:02.016Z,13.68
2023-02-14T07:40:29.875Z,13.65
2023-02-14T07:42:57.337Z,13.02
2023-02-14T07:45:24.143Z,13.00
2023-02-14T07:47:54.546Z,13.45
2023-02-14T07:50:22.060Z,13.63
2023-02-14T07:52:49.378Z,14.35
2023-02-14T07:55:16.447Z,15.90
2023-02-14T07:57:43.042Z,15.65
2023-02-14T08:00:09.722Z,14.88
2023-02-14T08:02:36.174Z,15.02
2023-02-14T08:05:02.717Z,14.95
2023-02-14T08:07:29.159Z,15.48
2023-02-14T08:09:55.622Z,16.25
2023-02-14T08:12:43.008Z,15.57
2023-02-14T08:15:27.773Z,13.07
2023-02-14T08:17:55.830Z,12.00
2023-02-14T08:20:22.412Z,12.35
2023-02-14T08:22:49.821Z,11.02
2023-02-14T08:25:16.216Z,12.00
2023-02-14T08:27:42.631Z,11.00
2023-02-14T08:30:09.390Z,10.73
2023-02-14T08:32:36.017Z,9.68
2023-02-14T08:35:02.503Z,9.75
2023-02-14T08:37:30.572Z,9.32
2023-02-14T08:39:58.304Z,10.57
2023-02-14T08:42:24.674Z,10.45
2023-02-14T08:44:51.029Z,10.15
2023-02-14T08:47:17.476Z,10.43
2023-02-14T08:49:43.831Z,10.23
2023-02-14T08:52:10.364Z,10.70
2023-02-14T08:54:37.319Z,10.18
2023-02-14T08:57:03.833Z,9.55
2023-02-14T08:59:33.066Z,9.40
2023-02-14T09:01:59.431Z,8.35
2023-02-14T09:04:25.931Z,9.57
2023-02-14T09:06:52.373Z,8.90
2023-02-14T09:09:19.606Z,9.13
2023-02-14T09:11:45.984Z,9.00
2023-02-14T09:14:12.441Z,8.80
2023-02-14T09:16:39.618Z,8.85
2023-02-14T09:19:06.032Z,9.10
2023-02-14T09:21:34.162Z,8.80
2023-02-14T09:24:00.509Z,8.18
2023-02-14T09:26:27.611Z,9.48
2023-02-14T09:28:54.056Z,8.40
2023-02-14T09:31:22.696Z,8.40
2023-02-14T09:33:49.978Z,9.13
2023-02-14T09:36:19.392Z,8.88
2023-02-14T09:38:46.021Z,8.88
2023-02-14T09:41:32.789Z,8.98
2023-02-14T09:44:02.196Z,9.57
2023-02-14T09:46:29.575Z,8.70
2023-02-14T09:48:56.410Z,9.20
2023-02-14T09:51:25.538Z,9.15
2023-02-14T09:53:54.172Z,9.07
2023-02-14T09:56:26.383Z,8.18
2023-02-14T09:58:52.725Z,8.02
2023-02-14T10:01:32.781Z,7.65
2023-02-14T10:04:11.439Z,7.70
2023-02-14T10:06:37.820Z,7.95
2023-02-14T10:09:23.257Z,7.82
2023-02-14T10:11:50.290Z,7.53
2023-02-14T10:14:24.690Z,7.75
2023-02-14T10:16:54.152Z,7.25
2023-02-14T10:19:27.504Z,6.90
2023-02-14T10:22:14.624Z,6.72
2023-02-14T10:24:53.073Z,6.72
2023-02-14T10:27:31.979Z,6.80
2023-02-14T10:29:58.514Z,6.90
2023-02-14T10:32:27.934Z,7.93
2023-02-14T10:34:56.452Z,6.97
2023-02-14T10:37:30.783Z,7.05
2023-02-14T10:40:17.393Z,7.72
2023-02-14T10:42:50.110Z,7.18
2023-02-14T10:45:22.646Z,7.60
2023-02-14T10:48:21.901Z,7.80
2023-02-14T10:50:48.206Z,6.82
2023-02-14T10:53:28.108Z,7.80
2023-02-14T10:55:57.255Z,7.60
2023-02-14T10:58:26.141Z,6.38
2023-02-14T11:00:52.568Z,7.68
2023-02-14T11:03:19.559Z,7.70
2023-02-14T11:05:47.110Z,7.28
2023-02-14T11:08:14.887Z,7.18
2023-02-14T11:10:41.535Z,7.88
2023-02-14T11:13:28.252Z,7.53
2023-02-14T11:15:58.447Z,7.07
2023-02-14T11:18:36.130Z,7.78
2023-02-14T11:21:08.148Z,7.25
2023-02-14T11:23:36.146Z,7.20
2023-02-14T11:26:03.632Z,6.60
2023-02-14T11:28:30.098Z,7.20
2023-02-14T11:30:56.868Z,7.25
2023-02-14T11:33:39.726Z,7.20
2023-02-14T11:36:10.706Z,6.82
2023-02-14T11:38:39.782Z,6.57
2023-02-14T11:41:10.889Z,6.40
2023-02-14T11:43:38.404Z,6.68
2023-02-14T11:46:25.093Z,6.95
2023-02-14T11:49:06.846Z,8.48
2023-02-14T11:51:42.799Z,6.15
2023-02-14T11:54:12.634Z,5.80
2023-02-14T11:56:45.176Z,6.32
2023-02-14T11:59:12.429Z,7.20
2023-02-14T12:01:38.738Z,5.90
2023-02-14T12:04:09.586Z,6.05
2023-02-14T12:06:36.522Z,6.50
2023-02-14T12:09:21.651Z,6.70
2023-02-14T12:11:56.557Z,6.70
2023-02-14T12:14:25.041Z,6.00
2023-02-14T12:17:10.124Z,6.55
2023-02-14T12:19:36.604Z,5.55
2023-02-14T12:22:04.790Z,5.65
2023-02-14T12:24:45.603Z,6.20
2023-02-14T12:27:24.020Z,5.68
2023-02-14T12:29:53.463Z,6.20
2023-02-14T12:32:21.658Z,5.53
2023-02-14T12:34:48.393Z,5.43
2023-02-14T12:37:20.966Z,6.28
2023-02-14T12:40:01.029Z,6.15
2023-02-14T12:42:32.911Z,6.05
2023-02-14T12:45:06.005Z,6.07
2023-02-14T12:47:32.335Z,6.32
2023-02-14T12:50:03.531Z,6.28
2023-02-14T12:52:45.199Z,6.05
2023-02-14T12:55:29.949Z,5.75
2023-02-14T12:58:18.087Z,6.53
2023-02-14T13:00:53.511Z,6.25
2023-02-14T13:05:58.373Z,6.35
2023-02-14T13:08:27.674Z,5.72
2023-02-14T13:11:17.252Z,6.00
2023-02-14T13:14:04.484Z,5.82
2023-02-14T13:16:41.097Z,5.93
2023-02-14T13:19:21.030Z,6.38
2023-02-14T13:21:48.968Z,6.65
2023-02-14T13:24:21.803Z,5.80
2023-02-14T13:26:55.267Z,6.97
2023-02-14T13:29:27.189Z,6.93
2023-02-14T13:31:56.975Z,8.10
2023-02-14T13:34:26.621Z,9.30
2023-02-14T13:36:54.514Z,10.63
2023-02-14T13:39:36.271Z,10.95
2023-02-14T13:42:05.071Z,11.18
2023-02-14T13:44:50.115Z,11.00
2023-02-14T13:47:24.461Z,10.68
2023-02-14T13:50:00.852Z,11.48
2023-02-14T13:52:39.538Z,11.00
2023-02-14T13:55:15.816Z,11.80
2023-02-14T13:57:42.605Z,10.82
2023-02-14T14:00:14.860Z,11.07
2023-02-14T14:02:48.019Z,11.45
2023-02-14T14:05:29.733Z,11.82
2023-02-14T14:08:14.837Z,9.88
2023-02-14T14:10:42.425Z,10.63
2023-02-14T14:13:09.215Z,11.63
2023-02-14T14:15:35.619Z,10.77
2023-02-14T14:18:14.324Z,11.77
2023-02-14T14:20:43.675Z,11.30
2023-02-14T14:23:39.768Z,11.70
2023-02-14T14:26:24.791Z,11.30
2023-02-14T14:28:51.163Z,11.25
2023-02-14T14:31:20.459Z,10.93
2023-02-14T14:33:46.861Z,10.02
2023-02-14T14:36:21.596Z,10.25
2023-02-14T14:38:49.644Z,10.53
2023-02-14T14:41:16.171Z,11.40
2023-02-14T14:43:43.088Z,9.63
2023-02-14T14:46:11.629Z,10.52
2023-02-14T14:48:45.623Z,9.95
2023-02-14T14:51:23.035Z,11.18
2023-02-14T14:53:52.137Z,11.82
2023-02-14T14:56:23.493Z,12.30
2023-02-14T14:58:49.839Z,12.82
2023-02-14T15:01:30.885Z,12.20
2023-02-14T15:04:12.202Z,11.88
2023-02-14T15:06:38.820Z,11.82
2023-02-14T15:09:16.321Z,11.35
2023-02-14T15:12:02.396Z,11.15
2023-02-14T15:16:58.884Z,10.20
2023-02-14T15:19:37.215Z,12.25
2023-02-14T15:22:05.841Z,10.57
2023-02-14T15:24:35.231Z,12.15
2023-02-14T15:27:02.252Z,12.20
2023-02-14T15:29:30.997Z,12.77
2023-02-14T15:32:00.502Z,12.40
2023-02-14T15:34:31.751Z,12.68
2023-02-14T15:37:03.628Z,11.50
2023-02-14T15:39:33.873Z,12.35
2023-02-14T15:42:00.278Z,13.02
2023-02-14T15:44:26.710Z,13.07
2023-02-14T15:46:54.474Z,12.98
2023-02-14T15:49:22.213Z,13.75
2023-02-14T15:51:49.235Z,14.20
2023-02-14T15:54:22.578Z,14.20
2023-02-14T15:56:50.380Z,13.88
2023-02-14T15:59:17.535Z,13.00
2023-02-14T16:01:50.310Z,13.52
2023-02-14T16:04:22.417Z,13.40
2023-02-14T16:07:02.036Z,14.35
2023-02-14T16:09:29.583Z,13.57
2023-02-14T16:11:56.260Z,15.00
2023-02-14T16:14:30.229Z,23.35
2023-02-14T16:17:04.321Z,24.08
2023-02-14T16:19:39.643Z,18.50
2023-02-14T16:22:07.409Z,15.30
2023-02-14T16:24:34.484Z,12.63
2023-02-14T16:27:06.741Z,12.95
2023-02-14T16:29:35.348Z,12.68
2023-02-14T16:32:16.146Z,12.93
2023-02-14T16:34:43.526Z,13.23
2023-02-14T16:37:19.115Z,13.25
2023-02-14T16:42:18.288Z,13.43
2023-02-14T16:44:45.267Z,15.95
2023-02-14T16:47:12.249Z,16.42
2023-02-14T16:49:56.211Z,16.20
2023-02-14T16:52:25.703Z,17.80
2023-02-14T16:54:52.553Z,19.73
2023-02-14T16:57:21.009Z,19.77
2023-02-14T16:59:47.503Z,19.42
2023-02-14T17:02:13.981Z,19.52
2023-02-14T17:04:40.452Z,18.05
2023-02-14T17:07:07.443Z,21.15
2023-02-14T17:09:37.054Z,23.13
2023-02-14T17:12:06.826Z,23.25
2023-02-14T17:14:35.170Z,21.20
2023-02-14T17:17:01.641Z,21.23
2023-02-14T17:19:28.041Z,20.35
2023-02-14T17:21:56.886Z,20.65
2023-02-14T17:24:23.419Z,20.25
2023-02-14T17:26:49.747Z,19.00
2023-02-14T17:29:16.104Z,19.35
2023-02-14T17:31:42.564Z,19.98
2023-02-14T17:34:10.822Z,22.40
2023-02-14T17:36:37.806Z,23.50
2023-02-14T17:39:04.685Z,22.48
2023-02-14T17:41:31.476Z,23.35
2023-02-14T17:44:01.423Z,21.83
2023-02-14T17:46:28.791Z,22.40
2023-02-14T17:48:55.278Z,23.65
2023-02-14T17:51:22.321Z,22.80
2023-02-14T17:53:49.095Z,37.55
2023-02-14T17:56:20.282Z,49.33
2023-02-14T17:58:50.784Z,55.10
2023-02-14T18:01:18.526Z,47.75
2023-02-14T18:03:45.144Z,27.23
2023-02-14T18:06:12.072Z,30.13
2023-02-14T18:08:39.535Z,227.55
2023-02-14T18:11:09.945Z,133.77
2023-02-14T18:13:36.740Z,89.05
2023-02-14T18:16:04.545Z,45.25
2023-02-14T18:18:31.382Z,37.30
2023-02-14T18:20:59.535Z,31.50
2023-02-14T18:23:26.614Z,29.27
2023-02-14T18:25:55.665Z,25.92
2023-02-14T18:28:22.988Z,27.50
2023-02-14T18:30:49.731Z,26.38
2023-02-14T18:33:17.743Z,26.15
2023-02-14T18:35:45.045Z,25.25
2023-02-14T18:38:11.439Z,25.52
2023-02-14T18:40:38.057Z,23.83
2023-02-14T18:43:04.761Z,23.75
2023-02-14T18:45:40.228Z,24.58
2023-02-14T18:50:35.640Z,20.33
2023-02-14T18:53:02.162Z,22.10
2023-02-14T18:55:28.945Z,22.40
2023-02-14T18:57:55.382Z,22.42
2023-02-14T19:00:22.099Z,21.73
2023-02-14T19:02:48.586Z,22.08
2023-02-14T19:05:14.966Z,23.60
2023-02-14T19:07:41.412Z,23.50
2023-02-14T19:10:08.220Z,23.63
2023-02-14T19:12:34.909Z,22.23
2023-02-14T19:15:01.679Z,22.27
2023-02-14T19:17:28.090Z,20.88
2023-02-14T19:19:55.328Z,23.20
2023-02-14T19:22:21.884Z,21.95
2023-02-14T19:24:48.395Z,23.08
2023-02-14T19:27:14.840Z,22.95
2023-02-14T19:29:41.384Z,22.25
2023-02-14T19:32:08.736Z,22.02
2023-02-14T19:34:35.887Z,22.83
2023-02-14T19:37:02.460Z,22.30
2023-02-14T19:39:29.705Z,21.98
2023-02-14T19:41:56.739Z,23.42
2023-02-14T19:44:25.750Z,21.58
2023-02-14T19:46:54.359Z,21.08
2023-02-14T19:49:21.173Z,22.40
2023-02-14T19:51:48.126Z,20.33
2023-02-14T19:54:15.454Z,22.10
2023-02-14T19:56:43.437Z,22.17
2023-02-14T19:59:10.413Z,22.70
2023-02-14T20:01:42.011Z,23.70
2023-02-14T20:04:14.725Z,23.20
2023-02-14T20:06:43.770Z,23.17
2023-02-14T20:09:10.655Z,24.23
2023-02-14T20:11:46.511Z,21.80
2023-02-14T20:14:13.817Z,22.70
2023-02-14T20:16:40.268Z,21.52
2023-02-14T20:19:08.196Z,21.73
2023-02-14T20:21:34.952Z,22.33
2023-02-14T20:24:02.116Z,23.33
2023-02-14T20:26:29.763Z,21.38
2023-02-14T20:28:58.655Z,22.83
2023-02-14T20:31:25.173Z,23.10
2023-02-14T20:33:52.816Z,22.50
2023-02-14T20:36:20.179Z,23.60
2023-02-14T20:38:46.709Z,22.55
2023-02-14T20:41:13.949Z,24.25
2023-02-14T20:43:40.382Z,23.55
2023-02-14T20:46:07.033Z,23.55
2023-02-14T20:48:34.381Z,23.02
2023-02-14T20:51:13.161Z,24.17
2023-02-14T20:53:40.189Z,21.70
2023-02-14T20:56:07.321Z,22.10
2023-02-14T20:58:34.658Z,21.85
2023-02-14T21:01:08.239Z,24.63
2023-02-14T21:03:36.013Z,23.40
2023-02-14T21:06:03.670Z,23.80
2023-02-14T21:08:30.413Z,25.70
2023-02-14T21:10:56.848Z,22.73
2023-02-14T21:13:23.219Z,23.42
2023-02-14T21:15:49.739Z,24.13
2023-02-14T21:18:16.207Z,24.70
2023-02-14T21:20:42.598Z,25.13
2023-02-14T21:23:08.997Z,25.05
2023-02-14T21:25:35.380Z,24.20
2023-02-14T21:28:02.052Z,24.70
2023-02-14T21:30:31.073Z,22.85
2023-02-14T21:32:57.592Z,21.27
2023-02-14T21:35:24.809Z,21.65
2023-02-14T21:37:51.207Z,22.75
2023-02-14T21:40:17.664Z,23.85
2023-02-14T21:42:44.064Z,22.13
2023-02-14T21:45:31.058Z,22.27
2023-02-14T21:48:15.979Z,22.17
2023-02-14T21:50:42.394Z,23.03
2023-02-14T21:53:08.881Z,21.02
2023-02-14T21:55:35.363Z,22.48
2023-02-14T21:58:01.789Z,20.88
2023-02-14T22:00:28.257Z,22.95
2023-02-14T22:02:54.777Z,22.63
2023-02-14T22:05:21.277Z,22.40
2023-02-14T22:07:47.622Z,21.90
2023-02-14T22:10:14.075Z,21.00
2023-02-14T22:12:40.388Z,21.10
2023-02-14T22:15:06.949Z,20.17
2023-02-14T22:17:33.470Z,23.63
2023-02-14T22:19:59.874Z,22.25
2023-02-14T22:22:26.311Z,22.08
2023-02-14T22:24:52.857Z,21.63
2023-02-14T22:27:19.329Z,22.42
2023-02-14T22:29:45.729Z,22.48
2023-02-14T22:32:12.216Z,23.05
2023-02-14T22:34:38.759Z,23.05
2023-02-14T22:37:05.142Z,20.75
2023-02-14T22:39:31.600Z,22.50
2023-02-14T22:41:58.305Z,22.77
2023-02-14T22:44:25.063Z,21.83
2023-02-14T22:46:51.594Z,22.60
2023-02-14T22:49:18.001Z,20.98
2023-02-14T22:51:44.465Z,21.17
2023-02-14T22:54:13.441Z,22.48
2023-02-14T22:56:41.201Z,21.15
2023-02-14T22:59:09.007Z,21.80
2023-02-14T23:01:35.783Z,21.80
2023-02-14T23:04:02.832Z,20.67
2023-02-14T23:06:30.145Z,21.85
2023-02-14T23:08:57.039Z,22.10
2023-02-14T23:11:27.682Z,19.98
2023-02-14T23:14:13.017Z,19.55
2023-02-14T23:16:57.801Z,20.77
2023-02-14T23:19:44.209Z,15.47
2023-02-14T23:22:12.380Z,19.30
2023-02-14T23:24:38.846Z,19.45
2023-02-14T23:27:05.589Z,20.00
2023-02-14T23:29:32.368Z,20.05
2023-02-14T23:31:58.775Z,20.23
2023-02-14T23:34:26.195Z,19.48
2023-02-14T23:36:52.896Z,18.33
2023-02-14T23:39:19.615Z,19.55
2023-02-14T23:41:49.195Z,18.95
2023-02-14T23:44:18.705Z,19.70
2023-02-14T23:46:45.727Z,19.63
2023-02-14T23:49:12.169Z,18.38
2023-02-14T23:51:38.586Z,19.48
2023-02-14T23:54:05.081Z,19.52
2023-02-14T23:56:31.571Z,19.42
2023-02-14T23:58:57.979Z,19.30
